EKVG Airport Information

Runway Information
Runway 13 Length 5902 ft width 98 ft
Elevation 268 ft Threshold 0 ft Heading 118
Runway 31 Length 5902 ft Width 98 ft
Elevation 252 ft Threshold 0 ft Heading 298
Airport Frequencies
Type AFIS Name AFIS Frequency 124.85 MHZ
Airport Navaids
Type NDB Name Myggenes Frequency 337 KHZ
Type NDB Name Nolso Frequency 404 KHZ
Type NDB Name Vagar Frequency 348 KHZ
Airport Weather Information & NOTAM
ADDS - METARS form results

(1654 UTC 17 August 2019)
Data provider http://aviationweather.gov/metar/data/
 
METAR text: EKVG 171650Z AUTO 13005KT 9999 -RA BKN033/// 13/12 Q0987
Conditions at: EKVG (SORVAAG/VAGAR , DK) observed 1650 UTC 17 August 2019
Temperature: 13.0°C (55°F)
Dewpoint: 12.0°C (54°F) [RH = 94%]
Pressure (altimeter): 29.14 inches Hg (987.0 mb)
Winds: from the SE (130 degrees) at 6 MPH (5 knots; 2.6 m/s)
Visibility: 6 or more miles (10+ km)
Ceiling: 3300 feet AGL
Clouds: broken clouds at 3300 feet AGL
Weather: -RA  (light rain)

METAR text: EKVG 171620Z AUTO 13005KT 9999 BKN009/// BKN036/// BKN045/// 14/13 Q0986
Conditions at: EKVG (SORVAAG/VAGAR , DK) observed 1620 UTC 17 August 2019
Temperature: 14.0°C (57°F)
Dewpoint: 13.0°C (55°F) [RH = 94%]
Pressure (altimeter): 29.11 inches Hg (986.0 mb)
Winds: from the SE (130 degrees) at 6 MPH (5 knots; 2.6 m/s)
Visibility: 6 or more miles (10+ km)
Ceiling: 900 feet AGL
Clouds: broken clouds at 900 feet AGL
broken clouds at 3600 feet AGL
broken clouds at 4500 feet AGL
Weather: no significant weather observed at this time

Forecast for: EKVG (SORVAAG/VAGAR , DK)
Text: TAF EKVG 171422Z 1715/1720 13007KT 6000 SCT005 BKN020
Forecast period: 1500 to 2000 UTC 17 August 2019
Forecast type: FROM: standard forecast or significant change
Winds: from the SE (130 degrees) at 8 MPH (7 knots; 3.6 m/s)
Visibility: 4 miles (6 km)
Ceiling: 2000 feet AGL
Clouds: scattered clouds at 500 feet AGL
broken clouds at 2000 feet AGL
Weather: no significant weather forecast for this period
Text: TEMPO 1715/1720 0700 -RADZ FG BKN001
Forecast period: 1500 to 2000 UTC 17 August 2019
Forecast type: TEMPORARY: The following changes expected for less than half the time period
Visibility: 0.43 miles (0.69 km)
Ceiling: 100 feet AGL
Clouds: broken clouds at 100 feet AGL
Weather: -RA -DZ FG  (light rain, light drizzle, fog)